createdAt,value
2023-01-19T00:00:46.038Z,86778.00
2023-01-19T00:01:46.029Z,86778.00
2023-01-19T00:02:46.081Z,86782.00
2023-01-19T00:03:46.005Z,86780.00
2023-01-19T00:04:46.008Z,86782.00
2023-01-19T00:05:46.099Z,86784.00
2023-01-19T00:06:45.991Z,86782.00
2023-01-19T00:07:45.987Z,86782.00
2023-01-19T00:08:45.981Z,86785.00
2023-01-19T00:09:45.981Z,86789.00
2023-01-19T00:10:45.965Z,86791.00
2023-01-19T00:11:45.961Z,86791.00
2023-01-19T00:12:45.951Z,86795.00
2023-01-19T00:13:45.944Z,86795.00
2023-01-19T00:14:45.930Z,86791.00
2023-01-19T00:15:45.924Z,86791.00
2023-01-19T00:16:45.931Z,86799.00
2023-01-19T00:17:45.915Z,86799.00
2023-01-19T00:18:45.906Z,86801.00
2023-01-19T00:19:45.909Z,86803.00
2023-01-19T00:20:45.907Z,86805.00
2023-01-19T00:21:45.904Z,86807.00
2023-01-19T00:22:45.902Z,86805.00
2023-01-19T00:23:45.893Z,86809.00
2023-01-19T00:24:45.896Z,86809.00
2023-01-19T00:25:45.894Z,86813.00
2023-01-19T00:26:45.891Z,86815.00
2023-01-19T00:27:45.877Z,86813.00
2023-01-19T00:28:45.872Z,86813.00
2023-01-19T00:29:45.865Z,86813.00
2023-01-19T00:30:45.859Z,86815.00
2023-01-19T00:31:45.889Z,86815.00
2023-01-19T00:32:45.840Z,86817.00
2023-01-19T00:33:45.838Z,86815.00
2023-01-19T00:34:45.827Z,86819.00
2023-01-19T00:35:45.822Z,86817.00
2023-01-19T00:36:45.826Z,86817.00
2023-01-19T00:37:45.815Z,86817.00
2023-01-19T00:38:45.825Z,86817.00
2023-01-19T00:39:45.804Z,86819.00
2023-01-19T00:40:45.798Z,86815.00
2023-01-19T00:41:45.823Z,86817.00
2023-01-19T00:42:45.797Z,86819.00
2023-01-19T00:43:45.791Z,86821.00
2023-01-19T00:44:45.799Z,86823.00
2023-01-19T00:45:45.794Z,86825.00
2023-01-19T00:46:45.776Z,86827.00
2023-01-19T00:47:45.775Z,86825.00
2023-01-19T00:48:45.774Z,86827.00
2023-01-19T00:49:45.763Z,86827.00
2023-01-19T00:50:45.765Z,86829.00
2023-01-19T00:51:45.786Z,86827.00
2023-01-19T01:13:45.735Z,86844.00
2023-01-19T03:34:45.073Z,86895.00
2023-01-19T03:35:45.049Z,86895.00
2023-01-19T03:36:45.048Z,86897.00
2023-01-19T03:37:45.050Z,86897.00
2023-01-19T03:38:45.036Z,86895.00
2023-01-19T03:39:45.027Z,86895.00
2023-01-19T03:40:45.021Z,86895.00
2023-01-19T03:41:45.030Z,86899.00
2023-01-19T03:42:44.985Z,86897.00
2023-01-19T03:43:45.014Z,86895.00
2023-01-19T03:44:45.009Z,86897.00
2023-01-19T03:45:44.981Z,86895.00
2023-01-19T03:46:44.999Z,86893.00
2023-01-19T03:47:44.965Z,86895.00
2023-01-19T03:48:44.995Z,86893.00
2023-01-19T03:49:44.930Z,86895.00
2023-01-19T03:50:44.935Z,86897.00
2023-01-19T03:51:44.927Z,86893.00
2023-01-19T03:52:44.948Z,86897.00
2023-01-19T03:53:44.927Z,86895.00
2023-01-19T03:54:44.952Z,86899.00
2023-01-19T03:55:44.928Z,86895.00
2023-01-19T03:56:44.869Z,86899.00
2023-01-19T03:57:44.874Z,86895.00
2023-01-19T03:58:44.871Z,86895.00
2023-01-19T03:59:44.847Z,86893.00
2023-01-19T04:00:44.847Z,86893.00
2023-01-19T04:01:45.016Z,86893.00
2023-01-19T04:02:44.922Z,86893.00
2023-01-19T04:03:44.813Z,86893.00
2023-01-19T04:04:44.857Z,86893.00
2023-01-19T04:05:44.821Z,86893.00
2023-01-19T04:06:44.823Z,86895.00
2023-01-19T04:07:44.810Z,86893.00
2023-01-19T04:08:44.840Z,86897.00
2023-01-19T04:09:44.805Z,86899.00
2023-01-19T04:10:44.793Z,86901.00
2023-01-19T04:11:44.781Z,86899.00
2023-01-19T04:12:44.781Z,86899.00
2023-01-19T04:13:44.769Z,86903.00
2023-01-19T04:14:44.786Z,86905.00
2023-01-19T04:15:44.780Z,86905.00
2023-01-19T04:16:44.754Z,86907.00
2023-01-19T04:17:44.752Z,86905.00
2023-01-19T04:18:44.743Z,86903.00
2023-01-19T04:19:44.726Z,86903.00
2023-01-19T04:20:44.726Z,86903.00
2023-01-19T04:21:44.715Z,86901.00
2023-01-19T04:22:44.721Z,86901.00
2023-01-19T04:23:44.714Z,86903.00
2023-01-19T04:24:44.703Z,86907.00
2023-01-19T04:25:44.686Z,86909.00
2023-01-19T04:26:44.691Z,86911.00
2023-01-19T04:27:44.670Z,86913.00
2023-01-19T04:28:44.680Z,86915.00
2023-01-19T04:29:44.664Z,86915.00
2023-01-19T04:30:44.657Z,86915.00
2023-01-19T04:31:44.655Z,86913.00
2023-01-19T04:32:44.647Z,86911.00
2023-01-19T04:33:44.646Z,86913.00
2023-01-19T04:34:44.623Z,86915.00
2023-01-19T04:35:44.624Z,86911.00
2023-01-19T04:36:44.623Z,86919.00
2023-01-19T04:37:44.620Z,86917.00
2023-01-19T04:38:44.600Z,86919.00
2023-01-19T04:39:44.611Z,86921.00
2023-01-19T04:40:44.595Z,86921.00
2023-01-19T04:41:44.595Z,86923.00
2023-01-19T04:42:44.593Z,86923.00
2023-01-19T04:43:44.576Z,86923.00
2023-01-19T04:44:44.582Z,86923.00
2023-01-19T04:45:44.568Z,86923.00
2023-01-19T04:46:44.614Z,86921.00
2023-01-19T04:47:44.547Z,86923.00
2023-01-19T04:48:44.557Z,86923.00
2023-01-19T04:49:44.548Z,86923.00
2023-01-19T04:50:44.538Z,86929.00
2023-01-19T04:51:44.529Z,86927.00
2023-01-19T04:52:44.532Z,86927.00
2023-01-19T04:53:44.520Z,86929.00
2023-01-19T04:54:44.516Z,86931.00
2023-01-19T04:55:44.516Z,86931.00
2023-01-19T04:56:44.503Z,86931.00
2023-01-19T04:57:44.496Z,86931.00
2023-01-19T04:58:44.490Z,86933.00
2023-01-19T04:59:44.468Z,86933.00
2023-01-19T05:00:44.473Z,86942.00
2023-01-19T05:01:44.474Z,86942.00
2023-01-19T05:02:44.468Z,86942.00
2023-01-19T05:03:44.447Z,86944.00
2023-01-19T05:04:44.449Z,86946.00
2023-01-19T05:05:44.417Z,86944.00
2023-01-19T05:06:44.412Z,86946.00
2023-01-19T05:07:44.397Z,86947.00
2023-01-19T05:08:45.442Z,86947.00
2023-01-19T05:09:44.384Z,86947.00
2023-01-19T05:10:44.386Z,86947.00
2023-01-19T05:11:44.360Z,86946.00
2023-01-19T05:12:44.365Z,86946.00
2023-01-19T05:13:44.361Z,86946.00
2023-01-19T05:14:44.345Z,86947.00
2023-01-19T05:15:44.346Z,86949.00
2023-01-19T05:16:44.324Z,86947.00
2023-01-19T05:17:44.320Z,86949.00
2023-01-19T05:18:44.305Z,86949.00
2023-01-19T05:19:44.293Z,86951.00
2023-01-19T05:20:44.321Z,86951.00
2023-01-19T05:21:44.683Z,86949.00
2023-01-19T05:22:44.285Z,86947.00
2023-01-19T05:23:44.271Z,86949.00
2023-01-19T05:24:44.272Z,86946.00
2023-01-19T05:25:44.258Z,86951.00
2023-01-19T05:26:44.265Z,86953.00
2023-01-19T05:27:44.256Z,86953.00
2023-01-19T05:28:44.256Z,86955.00
2023-01-19T05:29:44.252Z,86959.00
2023-01-19T05:30:44.302Z,86959.00
2023-01-19T05:31:44.269Z,86963.00
2023-01-19T05:32:44.238Z,86963.00
2023-01-19T05:33:44.254Z,86965.00
2023-01-19T05:34:44.231Z,86965.00
2023-01-19T05:35:44.234Z,86965.00
2023-01-19T05:36:44.234Z,86965.00
2023-01-19T05:37:44.225Z,86967.00
2023-01-19T05:38:44.230Z,86967.00
2023-01-19T05:39:44.202Z,86967.00
2023-01-19T05:40:44.227Z,86971.00
2023-01-19T05:41:44.202Z,86969.00
2023-01-19T05:42:44.204Z,86969.00
2023-01-19T05:43:44.200Z,86965.00
2023-01-19T05:44:44.207Z,86967.00
2023-01-19T05:45:44.178Z,86969.00
2023-01-19T05:46:44.293Z,86971.00
2023-01-19T05:47:44.175Z,86967.00
2023-01-19T05:48:44.181Z,86971.00
2023-01-19T05:49:44.164Z,86971.00
2023-01-19T05:50:44.155Z,86973.00
2023-01-19T05:51:44.165Z,86971.00
2023-01-19T05:52:44.162Z,86975.00
2023-01-19T05:53:44.158Z,86977.00
2023-01-19T05:54:44.137Z,86977.00
2023-01-19T05:55:44.117Z,86975.00
2023-01-19T05:56:44.119Z,86977.00
2023-01-19T05:57:44.133Z,86979.00
2023-01-19T05:58:44.107Z,86979.00
2023-01-19T05:59:44.100Z,86985.00
2023-01-19T06:00:44.099Z,86981.00
2023-01-19T06:01:44.134Z,86983.00
2023-01-19T06:02:44.231Z,86987.00
2023-01-19T06:03:44.095Z,86985.00
2023-01-19T06:04:44.105Z,86985.00
2023-01-19T06:05:44.084Z,86987.00
2023-01-19T06:06:44.083Z,86989.00
2023-01-19T06:07:44.091Z,86991.00
2023-01-19T06:08:44.070Z,86993.00
2023-01-19T06:09:44.075Z,86993.00
2023-01-19T06:10:44.076Z,86991.00
2023-01-19T06:11:44.071Z,86993.00
2023-01-19T06:12:44.056Z,86993.00
2023-01-19T06:13:44.045Z,86995.00
2023-01-19T06:14:44.045Z,87001.00
2023-01-19T06:15:44.032Z,87001.00
2023-01-19T06:16:44.119Z,86999.00
2023-01-19T06:17:44.026Z,86997.00
2023-01-19T06:18:44.051Z,86997.00
2023-01-19T06:19:44.020Z,86999.00
2023-01-19T06:20:44.011Z,86997.00
2023-01-19T06:21:44.025Z,86997.00
2023-01-19T06:22:44.013Z,86997.00
2023-01-19T06:23:44.010Z,86999.00
2023-01-19T06:24:44.011Z,86997.00
2023-01-19T06:25:44.012Z,86997.00
2023-01-19T06:26:44.019Z,86999.00
2023-01-19T06:27:44.017Z,87001.00
2023-01-19T06:28:44.009Z,86999.00
2023-01-19T06:29:44.004Z,86999.00
2023-01-19T06:30:44.071Z,86999.00
2023-01-19T06:31:44.127Z,87001.00
2023-01-19T06:32:44.025Z,87002.00
2023-01-19T06:33:44.018Z,87004.00
2023-01-19T06:34:44.067Z,86999.00
2023-01-19T06:35:44.005Z,87002.00
2023-01-19T06:36:43.990Z,87004.00
2023-01-19T06:37:44.012Z,87006.00
2023-01-19T06:38:44.006Z,87006.00
2023-01-19T06:39:43.990Z,87002.00
2023-01-19T06:40:44.070Z,87006.00
2023-01-19T06:41:43.987Z,87006.00
2023-01-19T06:42:44.044Z,87006.00
2023-01-19T06:43:43.989Z,87010.00
2023-01-19T06:44:43.992Z,87006.00
2023-01-19T06:45:45.920Z,87010.00
2023-01-19T06:46:44.008Z,87010.00
2023-01-19T06:47:43.995Z,87014.00
2023-01-19T06:48:43.981Z,87018.00
2023-01-19T06:49:43.972Z,87018.00
2023-01-19T06:50:43.967Z,87018.00
2023-01-19T06:51:43.962Z,87018.00
2023-01-19T06:52:43.961Z,87020.00
2023-01-19T06:53:43.954Z,87024.00
2023-01-19T06:54:43.952Z,87020.00
2023-01-19T06:55:44.052Z,87026.00
2023-01-19T06:56:43.955Z,87026.00
2023-01-19T06:57:43.963Z,87024.00
2023-01-19T06:58:43.939Z,87022.00
2023-01-19T06:59:43.935Z,87026.00
2023-01-19T07:00:43.980Z,87026.00
2023-01-19T07:01:44.020Z,87028.00
2023-01-19T07:02:43.972Z,87036.00
2023-01-19T07:03:46.149Z,87036.00
2023-01-19T07:04:43.914Z,87038.00
2023-01-19T07:05:43.900Z,87040.00
2023-01-19T07:06:43.911Z,87038.00
2023-01-19T07:07:43.892Z,87040.00
2023-01-19T07:08:43.871Z,87040.00
2023-01-19T07:09:43.877Z,87040.00
2023-01-19T07:11:24.922Z,87040.00
2023-01-19T07:11:44.863Z,87040.00
2023-01-19T07:12:43.883Z,87038.00
2023-01-19T07:13:43.828Z,87040.00
2023-01-19T07:14:43.819Z,87036.00
2023-01-19T07:15:43.811Z,87038.00
2023-01-19T07:16:43.878Z,87038.00
2023-01-19T07:17:43.784Z,87042.00
2023-01-19T07:18:43.772Z,87044.00
2023-01-19T07:19:43.841Z,87042.00
2023-01-19T07:20:43.839Z,87042.00
2023-01-19T07:21:43.755Z,87046.00
2023-01-19T07:22:43.774Z,87042.00
2023-01-19T07:23:43.742Z,87046.00
2023-01-19T07:24:43.728Z,87048.00
2023-01-19T07:25:43.770Z,87044.00
2023-01-19T07:26:43.743Z,87048.00
2023-01-19T07:27:43.712Z,87049.00
2023-01-19T07:28:43.700Z,87048.00
2023-01-19T07:29:43.743Z,87049.00
2023-01-19T07:30:43.792Z,87049.00
2023-01-19T07:31:43.816Z,87051.00
2023-01-19T07:32:43.702Z,87051.00
2023-01-19T07:33:43.684Z,87053.00
2023-01-19T07:34:43.652Z,87049.00
2023-01-19T07:35:43.643Z,87049.00
2023-01-19T07:36:43.646Z,87049.00
2023-01-19T07:37:43.942Z,87055.00
2023-01-19T07:38:43.623Z,87055.00
2023-01-19T07:39:43.623Z,87057.00
2023-01-19T07:40:44.613Z,87055.00
2023-01-19T07:41:43.594Z,87057.00
2023-01-19T07:42:43.587Z,87061.00
2023-01-19T07:43:43.604Z,87063.00
2023-01-19T07:44:43.578Z,87061.00
2023-01-19T07:45:43.621Z,87063.00
2023-01-19T07:46:43.571Z,87065.00
2023-01-19T07:47:43.585Z,87063.00
2023-01-19T07:48:43.571Z,87059.00
2023-01-19T07:49:43.568Z,87063.00
2023-01-19T07:50:43.568Z,87067.00
2023-01-19T07:51:43.595Z,87069.00
2023-01-19T07:52:43.562Z,87069.00
2023-01-19T07:53:43.577Z,87069.00
2023-01-19T07:54:43.573Z,87071.00
2023-01-19T07:55:43.569Z,87075.00
2023-01-19T07:56:43.546Z,87071.00
2023-01-19T07:57:43.546Z,87071.00
2023-01-19T07:58:43.641Z,87069.00
2023-01-19T07:59:43.533Z,87073.00
2023-01-19T08:00:43.535Z,87075.00
2023-01-19T08:01:43.685Z,87077.00
2023-01-19T08:02:44.548Z,87075.00
2023-01-19T08:03:43.550Z,87081.00
2023-01-19T08:04:43.511Z,87081.00
2023-01-19T08:05:43.478Z,87077.00
2023-01-19T08:06:43.548Z,87077.00
2023-01-19T08:07:43.467Z,87079.00
2023-01-19T08:08:43.479Z,87081.00
2023-01-19T08:09:43.479Z,87081.00
2023-01-19T08:10:43.443Z,87081.00
2023-01-19T08:11:43.434Z,87085.00
2023-01-19T08:12:43.424Z,87089.00
2023-01-19T08:13:43.438Z,87087.00
2023-01-19T08:14:43.408Z,87089.00
2023-01-19T08:15:43.462Z,87083.00
2023-01-19T08:16:43.388Z,87085.00
2023-01-19T08:17:43.397Z,87089.00
2023-01-19T08:18:43.374Z,87091.00
2023-01-19T08:19:43.358Z,87093.00
2023-01-19T08:20:43.381Z,87091.00
2023-01-19T08:21:43.335Z,87095.00
2023-01-19T08:22:43.364Z,87093.00
2023-01-19T08:23:43.392Z,87091.00
2023-01-19T08:24:43.301Z,87089.00
2023-01-19T08:25:43.299Z,87093.00
2023-01-19T08:26:43.270Z,87097.00
2023-01-19T08:27:43.250Z,87095.00
2023-01-19T08:28:43.240Z,87101.00
2023-01-19T08:29:43.243Z,87103.00
2023-01-19T08:30:43.293Z,87103.00
2023-01-19T08:31:43.312Z,87101.00
2023-01-19T08:32:43.320Z,87097.00
2023-01-19T08:33:43.187Z,87103.00
2023-01-19T08:34:43.191Z,87104.00
2023-01-19T08:35:43.157Z,87106.00
2023-01-19T08:36:43.156Z,87093.00
2023-01-19T08:37:43.160Z,87103.00
2023-01-19T08:38:43.106Z,87106.00
2023-01-19T08:39:43.105Z,87106.00
2023-01-19T08:40:43.091Z,87104.00
2023-01-19T08:41:43.088Z,87104.00
2023-01-19T08:42:43.086Z,87108.00
2023-01-19T08:43:43.064Z,87114.00
2023-01-19T08:44:57.186Z,87112.00
2023-01-19T08:45:44.042Z,87114.00
2023-01-19T08:46:43.178Z,87108.00
2023-01-19T08:47:43.153Z,87112.00
2023-01-19T08:48:43.003Z,87114.00
2023-01-19T08:49:43.000Z,87114.00
2023-01-19T08:50:42.985Z,87112.00
2023-01-19T08:51:42.982Z,87116.00
2023-01-19T08:52:42.989Z,87116.00
2023-01-19T08:53:42.951Z,87116.00
2023-01-19T08:54:42.933Z,87116.00
2023-01-19T08:55:42.932Z,87116.00
2023-01-19T08:56:42.945Z,87112.00
2023-01-19T08:57:42.915Z,87114.00
2023-01-19T08:58:42.906Z,87114.00
2023-01-19T08:59:42.901Z,87118.00
2023-01-19T09:00:42.885Z,87120.00
2023-01-19T09:01:43.032Z,87118.00
2023-01-19T09:02:42.916Z,87122.00
2023-01-19T09:03:42.865Z,87118.00
2023-01-19T09:04:43.055Z,87120.00
2023-01-19T09:05:42.851Z,87124.00
2023-01-19T09:06:42.827Z,87126.00
2023-01-19T09:07:42.820Z,87124.00
2023-01-19T09:08:42.833Z,87126.00
2023-01-19T09:09:42.807Z,87128.00
2023-01-19T09:10:42.762Z,87128.00
2023-01-19T09:11:42.754Z,87130.00
2023-01-19T09:12:43.755Z,87132.00
2023-01-19T09:13:42.743Z,87134.00
2023-01-19T09:14:42.762Z,87132.00
2023-01-19T09:15:42.745Z,87132.00
2023-01-19T09:16:42.692Z,87134.00
2023-01-19T09:17:42.687Z,87128.00
2023-01-19T09:20:30.642Z,87132.00
2023-01-19T09:21:30.617Z,87128.00
2023-01-19T09:22:30.595Z,87128.00
2023-01-19T09:23:30.638Z,87128.00
2023-01-19T09:24:30.574Z,87126.00
2023-01-19T09:25:30.512Z,87128.00
2023-01-19T09:26:32.948Z,87128.00
2023-01-19T09:27:30.628Z,87130.00
2023-01-19T09:28:30.588Z,87132.00
2023-01-19T09:29:30.568Z,87134.00
2023-01-19T09:30:30.582Z,87140.00
2023-01-19T09:31:30.693Z,87138.00
2023-01-19T09:32:33.310Z,87142.00
2023-01-19T09:35:33.354Z,87140.00
2023-01-19T09:36:30.459Z,87144.00
2023-01-19T09:37:30.379Z,87144.00
2023-01-19T09:38:30.359Z,87144.00
2023-01-19T09:39:30.386Z,87146.00
2023-01-19T09:40:30.338Z,87152.00
2023-01-19T09:41:30.287Z,87148.00
2023-01-19T09:42:30.269Z,87146.00
2023-01-19T09:43:30.238Z,87146.00
2023-01-19T09:44:30.213Z,87150.00
2023-01-19T09:45:30.199Z,87148.00
2023-01-19T09:46:30.275Z,87148.00
2023-01-19T09:47:30.166Z,87148.00
2023-01-19T09:48:30.151Z,87146.00
2023-01-19T09:49:30.110Z,87148.00
2023-01-19T09:50:30.117Z,87150.00
2023-01-19T09:51:30.073Z,87144.00
2023-01-19T09:52:30.054Z,87152.00
2023-01-19T09:53:30.096Z,87144.00
2023-01-19T09:54:30.005Z,87142.00
2023-01-19T09:55:29.981Z,87142.00
2023-01-19T09:56:29.948Z,87146.00
2023-01-19T09:57:29.932Z,87159.00
2023-01-19T09:58:29.904Z,87159.00
2023-01-19T09:59:29.900Z,87158.00
2023-01-19T10:00:29.877Z,87154.00
2023-01-19T10:01:29.926Z,87156.00
2023-01-19T10:02:29.823Z,87154.00
2023-01-19T10:03:29.799Z,87156.00
2023-01-19T10:04:29.812Z,87161.00
2023-01-19T10:05:29.753Z,87159.00
2023-01-19T10:06:29.745Z,87159.00
2023-01-19T10:07:29.686Z,87159.00
2023-01-19T10:08:29.705Z,87161.00
2023-01-19T10:09:29.664Z,87163.00
2023-01-19T10:10:29.655Z,87163.00
2023-01-19T10:11:38.093Z,87163.00
2023-01-19T10:12:30.577Z,87163.00
2023-01-19T10:13:29.556Z,87161.00
2023-01-19T10:14:29.530Z,87163.00
2023-01-19T10:15:29.503Z,87159.00
2023-01-19T10:16:29.473Z,87161.00
2023-01-19T10:17:29.426Z,87158.00
2023-01-19T10:18:29.402Z,87158.00
2023-01-19T10:19:29.410Z,87159.00
2023-01-19T10:20:29.386Z,87159.00
2023-01-19T10:21:29.375Z,87159.00
2023-01-19T10:22:29.313Z,87158.00
2023-01-19T10:23:29.265Z,87158.00
2023-01-19T10:24:29.250Z,87156.00
2023-01-19T10:25:29.248Z,87158.00
2023-01-19T10:26:29.176Z,87158.00
2023-01-19T10:27:29.152Z,87158.00
2023-01-19T10:28:29.131Z,87158.00
2023-01-19T10:29:29.105Z,87163.00
2023-01-19T10:30:29.120Z,87156.00
2023-01-19T10:31:29.129Z,87161.00
2023-01-19T10:32:29.004Z,87159.00
2023-01-19T10:33:28.988Z,87158.00
2023-01-19T10:34:28.946Z,87158.00
2023-01-19T10:35:28.916Z,87159.00
2023-01-19T10:36:28.919Z,87158.00
2023-01-19T13:12:24.127Z,87101.00
2023-01-19T13:13:24.086Z,87110.00
2023-01-19T13:14:24.037Z,87103.00
2023-01-19T13:15:24.011Z,87103.00
2023-01-19T13:16:23.972Z,87097.00
2023-01-19T13:17:23.959Z,87097.00
2023-01-19T13:18:23.905Z,87103.00
2023-01-19T13:19:23.869Z,87099.00
2023-01-19T13:20:23.846Z,87097.00
2023-01-19T13:21:23.947Z,87101.00
2023-01-19T13:22:23.777Z,87108.00
2023-01-19T13:23:23.778Z,87112.00
2023-01-19T13:24:23.726Z,87112.00
2023-01-19T13:25:23.714Z,87116.00
2023-01-19T13:26:23.687Z,87116.00
2023-01-19T13:27:23.645Z,87116.00
2023-01-19T13:28:23.611Z,87114.00
2023-01-19T13:29:23.577Z,87120.00
2023-01-19T13:30:23.607Z,87120.00
2023-01-19T13:31:23.543Z,87118.00
2023-01-19T13:32:23.497Z,87122.00
2023-01-19T13:33:23.462Z,87122.00
2023-01-19T13:34:23.421Z,87118.00
2023-01-19T13:35:23.433Z,87122.00
2023-01-19T13:36:23.353Z,87122.00
2023-01-19T13:37:23.332Z,87124.00
2023-01-19T13:38:23.299Z,87124.00
2023-01-19T13:39:23.285Z,87126.00
2023-01-19T13:40:23.265Z,87124.00
2023-01-19T13:41:23.225Z,87126.00
2023-01-19T13:42:23.197Z,87128.00
2023-01-19T13:43:23.200Z,87128.00
2023-01-19T13:44:23.137Z,87130.00
2023-01-19T13:45:23.122Z,87130.00
2023-01-19T13:46:23.168Z,87130.00
2023-01-19T13:47:23.056Z,87132.00
2023-01-19T13:48:23.074Z,87132.00
2023-01-19T13:49:23.022Z,87130.00
2023-01-19T13:50:22.970Z,87128.00
2023-01-19T13:51:22.930Z,87124.00
2023-01-19T13:52:22.894Z,87124.00
2023-01-19T13:53:22.872Z,87128.00
2023-01-19T13:54:22.946Z,87128.00
2023-01-19T13:55:22.844Z,87130.00
2023-01-19T13:56:22.807Z,87130.00
2023-01-19T13:57:22.824Z,87132.00
2023-01-19T13:58:22.805Z,87130.00
2023-01-19T13:59:22.771Z,87130.00
2023-01-19T14:00:22.665Z,87132.00
2023-01-19T14:01:23.114Z,87134.00
2023-01-19T14:02:22.696Z,87132.00
2023-01-19T14:03:22.602Z,87134.00
2023-01-19T14:04:22.549Z,87132.00
2023-01-19T14:05:22.541Z,87134.00
2023-01-19T14:06:22.532Z,87134.00
2023-01-19T14:07:22.472Z,87134.00
2023-01-19T14:08:22.424Z,87138.00
2023-01-19T14:09:22.404Z,87136.00
2023-01-19T14:10:22.408Z,87136.00
2023-01-19T14:11:22.355Z,87136.00
2023-01-19T14:12:22.310Z,87136.00
2023-01-19T14:13:22.319Z,87136.00
2023-01-19T14:14:22.260Z,87138.00
2023-01-19T14:15:22.374Z,87140.00
2023-01-19T14:16:22.205Z,87144.00
2023-01-19T14:17:22.176Z,87140.00
2023-01-19T14:18:22.137Z,87142.00
2023-01-19T14:19:22.170Z,87142.00
2023-01-19T14:20:22.107Z,87142.00
2023-01-19T14:21:22.067Z,87142.00
2023-01-19T14:22:22.049Z,87144.00
2023-01-19T14:23:22.021Z,87144.00
2023-01-19T14:24:21.986Z,87148.00
2023-01-19T14:25:21.988Z,87144.00
2023-01-19T14:26:21.976Z,87146.00
2023-01-19T14:27:21.926Z,87150.00
2023-01-19T14:28:21.937Z,87152.00
2023-01-19T14:29:21.882Z,87156.00
2023-01-19T14:30:21.880Z,87159.00
2023-01-19T14:31:21.888Z,87154.00
2023-01-19T14:32:21.814Z,87159.00
2023-01-19T14:33:21.819Z,87159.00
2023-01-19T14:34:21.769Z,87158.00
2023-01-19T14:35:21.736Z,87161.00
2023-01-19T14:36:21.713Z,87163.00
2023-01-19T14:37:21.694Z,87159.00
2023-01-19T14:38:21.671Z,87161.00
2023-01-19T14:39:21.659Z,87163.00
2023-01-19T14:40:21.664Z,87156.00
2023-01-19T14:41:21.586Z,87159.00
2023-01-19T14:42:21.558Z,87159.00
2023-01-19T14:43:21.526Z,87165.00
2023-01-19T14:44:21.517Z,87167.00
2023-01-19T14:45:21.483Z,87167.00
2023-01-19T14:46:21.499Z,87167.00
2023-01-19T14:47:21.432Z,87161.00
2023-01-19T14:48:21.425Z,87159.00
2023-01-19T14:49:21.395Z,87167.00
2023-01-19T14:50:21.349Z,87167.00
2023-01-19T14:51:21.331Z,87165.00
2023-01-19T14:52:21.289Z,87167.00
2023-01-19T14:53:21.276Z,87165.00
2023-01-19T14:54:21.252Z,87167.00
2023-01-19T14:55:21.214Z,87165.00
2023-01-19T14:56:21.175Z,87169.00
2023-01-19T14:57:21.139Z,87165.00
2023-01-19T14:58:21.115Z,87167.00
2023-01-19T14:59:21.109Z,87167.00
2023-01-19T15:00:21.083Z,87165.00
2023-01-19T15:01:21.161Z,87171.00
2023-01-19T15:02:21.089Z,87167.00
2023-01-19T15:03:22.208Z,87169.00
2023-01-19T15:04:20.978Z,87169.00
2023-01-19T15:05:20.971Z,87169.00
2023-01-19T15:06:20.936Z,87169.00
2023-01-19T15:07:20.935Z,87169.00
2023-01-19T15:08:20.902Z,87169.00
2023-01-19T15:09:20.837Z,87171.00
2023-01-19T15:10:20.882Z,87171.00
2023-01-19T15:11:20.798Z,87169.00
2023-01-19T15:12:20.794Z,87167.00
2023-01-19T15:13:20.741Z,87169.00
2023-01-19T15:14:20.708Z,87171.00
2023-01-19T15:15:20.697Z,87171.00
2023-01-19T15:16:20.723Z,87175.00
2023-01-19T15:17:20.627Z,87173.00
2023-01-19T15:18:20.601Z,87175.00
2023-01-19T15:19:20.580Z,87177.00
2023-01-19T15:20:20.542Z,87177.00
2023-01-19T15:21:20.516Z,87179.00
2023-01-19T15:22:20.486Z,87177.00
2023-01-19T15:23:20.464Z,87179.00
2023-01-19T15:24:20.468Z,87177.00
2023-01-19T15:25:20.440Z,87179.00
2023-01-19T15:26:20.401Z,87177.00
2023-01-19T15:27:20.371Z,87179.00
2023-01-19T15:28:20.362Z,87175.00
2023-01-19T15:29:20.324Z,87177.00
2023-01-19T15:30:20.311Z,87179.00
2023-01-19T15:31:20.401Z,87175.00
2023-01-19T15:32:20.255Z,87177.00
2023-01-19T15:33:20.230Z,87171.00
2023-01-19T15:34:20.205Z,87177.00
2023-01-19T15:35:20.179Z,87173.00
2023-01-19T15:36:20.150Z,87177.00
2023-01-19T15:37:20.132Z,87175.00
2023-01-19T15:38:20.152Z,87177.00
2023-01-19T15:39:20.089Z,87179.00
2023-01-19T15:40:20.066Z,87179.00
2023-01-19T15:41:22.954Z,87179.00
2023-01-19T15:42:20.025Z,87177.00
2023-01-19T15:43:19.993Z,87177.00
2023-01-19T15:44:19.968Z,87179.00
2023-01-19T15:45:19.959Z,87181.00
2023-01-19T15:46:19.938Z,87183.00
2023-01-19T15:47:19.915Z,87181.00
2023-01-19T15:48:19.879Z,87181.00
2023-01-19T15:49:19.865Z,87183.00
2023-01-19T15:50:19.849Z,87181.00
2023-01-19T15:51:19.800Z,87183.00
2023-01-19T15:52:19.789Z,87183.00
2023-01-19T15:53:19.795Z,87181.00
2023-01-19T15:54:19.734Z,87183.00
2023-01-19T15:55:19.703Z,87183.00
2023-01-19T15:56:19.685Z,87185.00
2023-01-19T15:57:19.670Z,87183.00
2023-01-19T15:58:19.639Z,87183.00
2023-01-19T15:59:19.647Z,87181.00
2023-01-19T16:00:19.607Z,87183.00
2023-01-19T16:01:19.748Z,87185.00
2023-01-19T16:02:19.741Z,87185.00
2023-01-19T16:03:19.561Z,87183.00
2023-01-19T16:04:19.535Z,87183.00
2023-01-19T16:05:19.495Z,87179.00
2023-01-19T16:06:19.469Z,87179.00
2023-01-19T16:07:19.505Z,87179.00
2023-01-19T16:08:19.410Z,87179.00
2023-01-19T16:09:19.397Z,87181.00
2023-01-19T16:10:19.389Z,87181.00
2023-01-19T16:11:19.353Z,87181.00
2023-01-19T16:12:19.331Z,87181.00
2023-01-19T16:13:19.310Z,87183.00
2023-01-19T16:14:19.311Z,87185.00
2023-01-19T16:15:19.279Z,87183.00
2023-01-19T16:16:19.318Z,87181.00
2023-01-19T16:17:19.217Z,87183.00
2023-01-19T16:18:19.205Z,87185.00
2023-01-19T16:19:19.180Z,87185.00
2023-01-19T16:20:19.215Z,87187.00
2023-01-19T16:21:19.159Z,87189.00
2023-01-19T16:22:19.122Z,87187.00
2023-01-19T16:23:19.120Z,87189.00
2023-01-19T16:24:19.076Z,87196.00
2023-01-19T16:25:19.061Z,87189.00
2023-01-19T16:26:19.036Z,87196.00
2023-01-19T16:27:18.991Z,87196.00
2023-01-19T16:28:18.977Z,87196.00
2023-01-19T16:29:18.957Z,87196.00
2023-01-19T16:30:18.976Z,87198.00
2023-01-19T16:31:18.942Z,87202.00
2023-01-19T16:32:18.899Z,87202.00
2023-01-19T16:33:18.877Z,87200.00
2023-01-19T19:46:14.474Z,87212.00
2023-01-19T19:47:14.408Z,87214.00
2023-01-19T19:52:14.320Z,87210.00
2023-01-19T20:42:13.466Z,87225.00
2023-01-19T21:22:12.720Z,87229.00
2023-01-19T21:39:12.373Z,87239.00
2023-01-19T21:40:12.329Z,87237.00
2023-01-19T21:41:12.317Z,87243.00
2023-01-19T21:42:12.286Z,87241.00
2023-01-19T21:43:12.253Z,87241.00
2023-01-19T21:44:12.243Z,87241.00
2023-01-19T21:45:12.474Z,87243.00
2023-01-19T21:46:12.217Z,87239.00
2023-01-19T21:47:12.170Z,87239.00
2023-01-19T21:48:12.138Z,87237.00
2023-01-19T21:49:12.119Z,87235.00
2023-01-19T21:50:12.104Z,87237.00
2023-01-19T21:51:12.058Z,87237.00
2023-01-19T21:52:12.038Z,87233.00
2023-01-19T21:53:12.025Z,87237.00
2023-01-19T21:54:11.995Z,87237.00
2023-01-19T21:55:12.383Z,87239.00
2023-01-19T21:56:11.960Z,87235.00
2023-01-19T21:57:11.956Z,87239.00
2023-01-19T21:58:11.948Z,87237.00
2023-01-19T21:59:11.901Z,87241.00
2023-01-19T22:00:11.894Z,87241.00
2023-01-19T22:01:11.963Z,87241.00
2023-01-19T22:02:11.951Z,87241.00
2023-01-19T22:03:11.847Z,87245.00
2023-01-19T22:04:11.804Z,87243.00